Terminal Aerodrome Forecast
Issued by NWS

Home | Current Version | Previous Version | Text Only | Print | Product List | Glossary On
Versions: 1 2 3 4 5 6 7 8 9 10 11 12 13 14 15
000
FTUS45 KPSR 260212 AAA
TAFIPL
TAF AMD
KIPL 260212Z 2602/2624 27024G32KT P6SM SCT070 BKN250
      TEMPO 2602/2605 27028G38KT 5SM BLDU
     FM260500 28020G28KT P6SM FEW070 SCT120
     FM261200 30012KT P6SM FEW070 SCT200=

USA.gov is the U.S. government's official web portal to all federal, state and local government web resources and services.